Time;durP1;ratioP1;P1;durP2;ratioP2;P2;SDS_P1;SDS_P2;PMS_P1;PMS_P2;Temp;Humidity;BMP_temperature;BMP_pressure;BME280_temperature;BME280_humidity;BME280_pressure;Samples;Min_cycle;Max_cycle;Signal;HPM_P1;HPM_P2
2021/05/24 00:00:56;;;;;;;1.70;0.73;;;;;;;-142.75;56.09;76851.78;5086211;28;20406;-79
2021/05/24 00:03:21;;;;;;;2.30;0.95;;;;;;;-142.75;55.45;76834.06;5083248;28;20107;-77
2021/05/24 00:05:47;;;;;;;2.20;0.93;;;;;;;-142.75;55.42;76830.13;5089058;28;20044;-79
2021/05/24 00:08:12;;;;;;;3.25;1.10;;;;;;;-142.75;56.12;76814.38;5082173;28;20048;-79
2021/05/24 00:10:39;;;;;;;4.57;1.05;;;;;;;-142.75;55.07;76810.44;5087456;28;20035;-78
2021/05/24 00:13:07;;;;;;;4.95;1.10;;;;;;;-142.75;55.20;76796.69;5082949;28;20478;-79
2021/05/24 00:15:35;;;;;;;3.45;0.95;;;;;;;-142.75;55.28;76782.91;5085375;28;20028;-78
2021/05/24 00:18:02;;;;;;;3.97;0.98;;;;;;;-142.75;54.82;76775.03;5081371;28;20103;-77
2021/05/24 00:20:32;;;;;;;5.03;1.33;;;;;;;-142.75;54.47;76769.13;5089880;28;20016;-80
2021/05/24 00:22:57;;;;;;;6.68;1.10;;;;;;;-142.75;55.35;76784.88;5090265;28;20024;-80
2021/05/24 00:25:23;;;;;;;3.47;1.00;;;;;;;-142.75;54.44;76769.13;5087923;28;20027;-78
2021/05/24 00:27:49;;;;;;;6.07;1.35;;;;;;;-142.75;55.08;76767.16;5088357;28;20404;-78
2021/05/24 00:30:16;;;;;;;5.30;1.10;;;;;;;-142.75;56.18;76778.97;5082366;28;20032;-78
2021/05/24 00:32:41;;;;;;;3.83;1.10;;;;;;;-142.75;55.67;76775.03;5091380;28;20028;-79
2021/05/24 00:35:09;;;;;;;4.20;1.08;;;;;;;-142.75;56.41;76786.84;5087788;28;20024;-80
2021/05/24 00:37:34;;;;;;;7.00;1.10;;;;;;;-142.75;56.37;76794.69;5082173;28;20024;-80
2021/05/24 00:40:00;;;;;;;3.90;1.17;;;;;;;-142.75;56.98;76786.84;5092817;28;20039;-78
2021/05/24 00:42:25;;;;;;;1.98;0.82;;;;;;;-142.75;58.34;76782.91;5089450;28;20024;-78
2021/05/24 00:44:51;;;;;;;3.30;1.08;;;;;;;-142.75;57.63;76786.84;5083851;28;20040;-79
2021/05/24 00:47:16;;;;;;;3.35;1.27;;;;;;;-142.75;57.96;76786.84;5081430;28;20032;-80
2021/05/24 00:49:44;;;;;;;3.65;0.90;;;;;;;-142.75;56.23;76771.09;5086234;28;20020;-78
2021/05/24 00:52:13;;;;;;;4.18;0.85;;;;;;;-142.75;56.57;76767.16;5090318;28;20069;-79
2021/05/24 00:54:39;;;;;;;4.88;1.10;;;;;;;-142.75;56.98;76771.09;5086915;28;20028;-81
2021/05/24 00:57:05;;;;;;;2.10;0.77;;;;;;;-142.75;57.01;76782.91;5090915;28;20058;-82
2021/05/24 00:59:31;;;;;;;6.72;1.27;;;;;;;-142.75;57.95;76786.84;5083929;28;21419;-81
2021/05/24 01:01:56;;;;;;;3.35;1.10;;;;;;;-142.75;57.61;76777.00;5087454;28;20028;-79
2021/05/24 01:04:22;;;;;;;4.22;1.15;;;;;;;-142.75;58.48;76778.97;5084619;28;20032;-81
2021/05/24 01:06:48;;;;;;;2.28;0.90;;;;;;;-142.75;58.24;76782.91;5090009;28;20020;-79
2021/05/24 01:09:17;;;;;;;5.13;1.73;;;;;;;-142.75;58.70;76780.94;5081191;28;20028;-78
2021/05/24 01:11:42;;;;;;;5.45;0.88;;;;;;;-142.75;57.23;76775.03;5089395;28;20020;-80
2021/05/24 01:14:08;;;;;;;3.40;1.00;;;;;;;-142.75;57.79;76771.09;5090795;28;20481;-79
2021/05/24 01:16:33;;;;;;;2.50;0.88;;;;;;;-142.75;58.07;76759.28;5087306;28;20027;-79
2021/05/24 01:18:58;;;;;;;1.58;0.73;;;;;;;-142.75;57.70;76753.38;5082151;28;20051;-78
2021/05/24 01:21:24;;;;;;;2.58;0.93;;;;;;;-142.75;59.34;76767.16;5087125;28;20025;-80
2021/05/24 01:23:51;;;;;;;4.60;0.90;;;;;;;-142.75;57.98;76761.25;5084847;28;20024;-82
2021/05/24 01:26:18;;;;;;;1.95;0.90;;;;;;;-142.75;58.54;76759.28;5078621;28;20095;-81
2021/05/24 01:28:45;;;;;;;4.30;0.80;;;;;;;-142.75;57.79;76741.56;5088600;28;20474;-80
2021/05/24 01:31:11;;;;;;;3.78;0.60;;;;;;;-142.75;57.97;76739.59;5084959;28;20028;-79
2021/05/24 01:33:37;;;;;;;6.28;1.33;;;;;;;-142.75;57.33;76729.75;5085847;28;20394;-79
2021/05/24 01:36:08;;;;;;;3.15;0.80;;;;;;;-142.75;57.92;76717.94;5080762;28;20024;-80
2021/05/24 01:38:36;;;;;;;4.55;0.90;;;;;;;-142.75;56.93;76712.03;5084778;28;20073;-78
2021/05/24 01:41:02;;;;;;;4.75;1.00;;;;;;;-142.75;57.96;76723.84;5088125;28;20024;-80
2021/05/24 01:43:28;;;;;;;2.58;0.73;;;;;;;-142.75;57.07;76712.03;5087849;28;20028;-80
2021/05/24 01:45:53;;;;;;;;;;;;;;;-142.75;56.83;76700.22;5090153;28;20017;-82
2021/05/24 01:48:19;;;;;;;2.15;0.80;;;;;;;-142.75;58.03;76715.97;5087356;28;19948;-81
2021/05/24 01:50:45;;;;;;;6.03;1.17;;;;;;;-142.75;58.72;76706.13;5080752;28;20027;-78
2021/05/24 01:53:10;;;;;;;3.03;1.05;;;;;;;-142.75;58.85;76721.88;5084690;28;20091;-80
2021/05/24 01:55:36;;;;;;;1.98;0.70;;;;;;;-142.75;58.07;76702.19;5081292;28;20123;-80
2021/05/24 01:58:03;;;;;;;2.97;0.77;;;;;;;-142.75;56.22;76700.22;5086386;28;20028;-80
2021/05/24 02:00:28;;;;;;;4.00;0.70;;;;;;;-142.75;55.40;76700.22;5086836;28;20028;-80
2021/05/24 02:02:55;;;;;;;2.08;0.60;;;;;;;-142.75;55.87;76700.22;5083355;28;20070;-80
2021/05/24 02:05:22;;;;;;;2.30;0.60;;;;;;;-142.75;56.98;76717.94;5085182;28;20057;-79
2021/05/24 02:07:48;;;;;;;2.35;0.77;;;;;;;-142.75;57.26;76712.03;5083419;28;20024;-80
2021/05/24 02:10:17;;;;;;;3.33;0.68;;;;;;;-142.75;57.26;76729.75;5082348;28;20029;-80
2021/05/24 02:12:43;;;;;;;4.72;1.10;;;;;;;-142.75;58.63;76731.72;5089989;28;20024;-79
2021/05/24 02:15:10;;;;;;;2.17;0.70;;;;;;;-142.75;59.00;76735.66;5078454;28;20032;-79
2021/05/24 02:17:35;;;;;;;3.53;0.70;;;;;;;-142.75;59.50;76733.69;5091484;28;20029;-80
2021/05/24 02:20:03;;;;;;;4.38;1.27;;;;;;;-142.75;58.94;76753.38;5079756;28;20020;-80
2021/05/24 02:22:29;;;;;;;3.17;0.63;;;;;;;-142.75;59.85;76767.16;5088691;28;20031;-79
2021/05/24 02:24:54;;;;;;;3.58;0.85;;;;;;;-142.75;59.64;76780.94;5086682;28;20031;-79
2021/05/24 02:27:19;;;;;;;5.55;0.80;;;;;;;-142.75;60.72;76806.50;5086548;28;20035;-77
2021/05/24 02:29:44;;;;;;;3.10;0.70;;;;;;;-142.75;60.31;76820.28;5087266;28;20076;-79
2021/05/24 02:32:10;;;;;;;3.38;0.70;;;;;;;-142.75;60.22;76834.06;5081417;28;20474;-78
2021/05/24 02:34:36;;;;;;;3.15;0.88;;;;;;;-142.75;60.24;76834.06;5084049;28;20114;-81
2021/05/24 02:37:02;;;;;;;;;;;;;;;-142.75;61.81;76843.91;5082789;28;20032;-77
2021/05/24 02:39:27;;;;;;;2.67;0.70;;;;;;;-142.75;62.49;76853.75;5091540;28;19916;-79
2021/05/24 02:41:52;;;;;;;2.95;0.80;;;;;;;-142.75;63.22;76873.44;5080886;28;20055;-78
2021/05/24 02:44:18;;;;;;;2.30;0.82;;;;;;;-142.75;63.73;76889.19;5083606;28;20028;-78
2021/05/24 02:46:43;;;;;;;4.55;1.02;;;;;;;-142.75;64.25;76901.00;5078776;28;20016;-78
2021/05/24 02:49:09;;;;;;;2.92;0.88;;;;;;;-142.75;64.47;76902.97;5084662;28;20046;-82
2021/05/24 02:51:35;;;;;;;3.45;1.20;;;;;;;-142.75;65.09;76904.94;5080738;28;20028;-78
2021/05/24 02:54:01;;;;;;;5.03;1.20;;;;;;;-142.75;65.31;76906.91;5082440;28;20035;-79
2021/05/24 02:56:27;;;;;;;;;;;;;;;-142.75;65.58;76906.91;5081897;28;20072;-80
2021/05/24 02:58:53;;;;;;;5.82;1.33;;;;;;;-142.75;66.08;76912.81;5082264;28;19965;-79
2021/05/24 03:01:19;;;;;;;5.00;1.30;;;;;;;-142.75;66.17;76904.94;5082304;28;20056;-80
2021/05/24 03:03:44;;;;;;;;;;;;;;;-142.75;66.72;76918.72;5088370;28;20269;-79
2021/05/24 03:06:09;;;;;;;3.67;1.33;;;;;;;-142.75;66.71;76918.72;5081895;28;20011;-81
2021/05/24 03:08:35;;;;;;;4.18;1.20;;;;;;;-142.75;66.55;76916.75;5084481;28;20047;-79
2021/05/24 03:11:00;;;;;;;3.80;1.73;;;;;;;-142.75;67.08;76912.81;5087226;28;20027;-80
2021/05/24 03:13:26;;;;;;;4.93;2.25;;;;;;;-142.75;67.20;76918.72;5083551;28;20097;-81
2021/05/24 03:15:53;;;;;;;5.90;1.80;;;;;;;-142.75;67.32;76922.66;5087487;28;20592;-80
2021/05/24 03:18:18;;;;;;;4.53;1.63;;;;;;;-142.75;67.62;76918.72;5084835;28;20089;-83
2021/05/24 03:20:44;;;;;;;10.43;1.60;;;;;;;-142.75;67.66;76906.91;5086348;28;20025;-81
2021/05/24 03:23:10;;;;;;;7.97;1.95;;;;;;;-142.75;67.93;76912.81;5085805;28;20060;-82
2021/05/24 03:25:35;;;;;;;3.08;1.48;;;;;;;-142.75;67.75;76916.75;5085117;28;20063;-81
2021/05/24 03:28:00;;;;;;;8.20;2.10;;;;;;;-142.75;67.92;76920.69;5086448;28;20516;-82
2021/05/24 03:30:25;;;;;;;4.90;2.00;;;;;;;-142.75;67.60;76922.66;5084072;28;20055;-84
2021/05/24 03:32:51;;;;;;;8.77;2.07;;;;;;;-142.75;68.16;76928.56;5082848;28;20036;-82
2021/05/24 03:35:16;;;;;;;6.22;1.90;;;;;;;-142.75;68.05;76938.41;5080019;28;20286;-83
2021/05/24 03:37:42;;;;;;;4.25;1.70;;;;;;;-142.75;67.69;76920.69;5079005;28;20082;-81
2021/05/24 03:40:09;;;;;;;6.43;1.67;;;;;;;-142.75;67.64;76926.59;5090447;28;20024;-84
2021/05/24 03:42:36;;;;;;;5.18;2.60;;;;;;;-142.75;67.67;76922.66;5086700;28;20052;-84
2021/05/24 03:45:02;;;;;;;;;;;;;;;-142.75;67.95;76932.50;5115908;22;20043;-80
2021/05/24 03:47:27;;;;;;;5.32;2.03;;;;;;;-142.75;68.00;76932.50;5103812;28;19916;-80
2021/05/24 03:49:53;;;;;;;7.68;2.25;;;;;;;-142.75;67.70;76930.53;5101953;28;20077;-83
2021/05/24 03:52:18;;;;;;;3.00;1.70;;;;;;;-142.75;67.60;76932.50;5106402;28;20107;-81
2021/05/24 03:54:44;;;;;;;7.00;2.20;;;;;;;-142.75;67.91;76936.44;5102847;28;20070;-81
2021/05/24 03:57:10;;;;;;;4.85;2.00;;;;;;;-142.75;67.91;76936.44;5096442;28;20137;-83
2021/05/24 03:59:36;;;;;;;4.93;2.03;;;;;;;-142.75;67.91;76938.41;5097576;28;20397;-81
2021/05/24 04:02:02;;;;;;;;;;;;;;;-142.75;67.66;76936.44;5096768;28;20039;-83
2021/05/24 04:04:28;;;;;;;6.80;1.70;;;;;;;-142.75;67.12;76940.38;5095923;28;19912;-79
2021/05/24 04:06:55;;;;;;;5.03;1.65;;;;;;;-142.75;67.69;76938.41;5096430;28;20051;-81
2021/05/24 04:09:22;;;;;;;6.60;2.00;;;;;;;-142.75;67.62;76936.44;5097118;28;20388;-82
2021/05/24 04:11:47;;;;;;;;;;;;;;;-142.75;68.06;76940.38;5096246;28;20024;-80
2021/05/24 04:14:12;;;;;;;4.17;1.70;;;;;;;-142.75;67.51;76940.38;5096494;28;19923;-80
2021/05/24 04:16:38;;;;;;;4.93;1.38;;;;;;;-142.75;67.11;76942.34;5095304;28;20110;-80
2021/05/24 04:19:08;;;;;;;2.50;1.30;;;;;;;-142.75;67.65;76940.38;5095970;28;20015;-80
2021/05/24 04:21:34;;;;;;;2.73;1.07;;;;;;;-142.75;67.91;76946.28;5094502;28;20270;-82
2021/05/24 04:23:59;;;;;;;5.72;1.02;;;;;;;-142.75;67.84;76946.28;5096796;28;20138;-82
2021/05/24 04:26:25;;;;;;;3.35;1.20;;;;;;;-142.75;67.53;76936.44;5094589;28;20020;-81
2021/05/24 04:28:50;;;;;;;4.13;1.27;;;;;;;-142.75;67.50;76934.47;5096053;28;20035;-80
2021/05/24 04:31:15;;;;;;;2.50;1.10;;;;;;;-142.75;67.72;76934.47;5097195;28;20281;-80
2021/05/24 04:33:40;;;;;;;3.63;1.30;;;;;;;-142.75;67.26;76936.44;5096455;28;20337;-79
2021/05/24 04:36:06;;;;;;;4.87;1.43;;;;;;;-142.75;67.53;76930.53;5096555;28;20290;-81
2021/05/24 04:38:31;;;;;;;5.03;1.50;;;;;;;-142.75;67.28;76938.41;5096679;28;20173;-81
2021/05/24 04:40:57;;;;;;;2.40;0.90;;;;;;;-142.75;67.35;76944.31;5097877;28;20490;-80
2021/05/24 04:43:29;;;;;;;2.28;1.10;;;;;;;-142.75;67.40;76948.25;5093714;28;20278;-80
2021/05/24 04:45:55;;;;;;;4.43;1.30;;;;;;;-142.75;67.41;76946.28;5095645;28;20086;-81
2021/05/24 04:48:20;;;;;;;4.95;1.13;;;;;;;-142.75;67.52;76940.38;5095957;28;20081;-79
2021/05/24 04:50:45;;;;;;;1.75;0.82;;;;;;;-142.75;67.29;76942.34;5094587;28;20024;-80
2021/05/24 04:53:10;;;;;;;3.80;1.20;;;;;;;-142.75;67.25;76952.19;5096736;28;20116;-79
2021/05/24 04:55:36;;;;;;;3.78;1.15;;;;;;;-142.75;67.79;76952.19;5096638;28;20297;-80
2021/05/24 04:58:01;;;;;;;2.72;1.08;;;;;;;-142.75;67.58;76954.16;5097331;28;20481;-80
2021/05/24 05:00:26;;;;;;;1.75;0.90;;;;;;;-142.75;67.70;76946.28;5095793;28;20070;-80
2021/05/24 05:02:51;;;;;;;5.72;1.00;;;;;;;-142.75;67.09;76938.41;5095586;28;20024;-80
2021/05/24 05:05:17;;;;;;;2.15;1.13;;;;;;;-142.75;66.88;76944.31;5094625;28;20028;-79
2021/05/24 05:07:42;;;;;;;3.85;1.40;;;;;;;-142.75;67.33;76946.28;5094406;28;20110;-82
2021/05/24 05:10:08;;;;;;;1.67;0.80;;;;;;;-142.75;67.30;76942.34;5095554;28;20544;-83
2021/05/24 05:12:33;;;;;;;6.25;1.45;;;;;;;-142.75;67.42;76940.38;5094452;28;20028;-82
2021/05/24 05:14:59;;;;;;;3.70;1.13;;;;;;;-142.75;67.60;76942.34;5096159;28;20052;-81
2021/05/24 05:17:24;;;;;;;4.63;1.13;;;;;;;-142.75;67.47;76944.31;5094606;28;20485;-82
2021/05/24 05:19:50;;;;;;;4.20;1.42;;;;;;;-142.75;67.34;76942.34;5095531;28;20485;-82
2021/05/24 05:22:15;;;;;;;5.70;1.30;;;;;;;-142.75;67.50;76944.31;5094504;28;20489;-84
2021/05/24 05:24:41;;;;;;;2.90;1.25;;;;;;;-142.75;67.82;76946.28;5096847;28;20031;-83
2021/05/24 05:27:06;;;;;;;5.82;1.20;;;;;;;-142.75;67.16;76934.47;5097162;28;20100;-82
2021/05/24 05:29:32;;;;;;;4.78;1.25;;;;;;;-142.75;67.67;76940.38;5094564;28;20051;-83
2021/05/24 05:31:57;;;;;;;1.88;1.00;;;;;;;-142.75;67.06;76942.34;5094576;28;20043;-85
2021/05/24 05:34:23;;;;;;;3.90;1.35;;;;;;;-142.75;67.34;76928.56;5095999;28;20043;-85
2021/05/24 05:36:48;;;;;;;3.55;1.25;;;;;;;-142.75;67.39;76932.50;5095650;28;20388;-86
2021/05/24 05:39:13;;;;;;;2.38;1.08;;;;;;;-142.75;67.23;76936.44;5094315;28;20020;-84
2021/05/24 05:41:39;;;;;;;9.18;1.45;;;;;;;-142.75;67.18;76934.47;5094760;28;20047;-85
2021/05/24 05:44:05;;;;;;;2.60;1.30;;;;;;;-142.75;67.50;76928.56;5095172;28;20405;-84
2021/05/24 05:46:31;;;;;;;3.72;1.70;;;;;;;-142.75;67.32;76922.66;5092328;28;20086;-85
2021/05/24 05:48:56;;;;;;;3.30;1.10;;;;;;;-142.75;67.56;76928.56;5093828;28;20027;-84
2021/05/24 05:51:21;;;;;;;2.03;1.15;;;;;;;-142.75;67.46;76930.53;5095135;28;20055;-84
2021/05/24 05:53:47;;;;;;;4.18;1.58;;;;;;;-142.75;67.44;76918.72;5094481;28;20020;-84
2021/05/24 05:56:12;;;;;;;4.35;1.30;;;;;;;-142.75;67.50;76916.75;5092835;28;20028;-83
2021/05/24 05:58:37;;;;;;;3.05;1.20;;;;;;;-142.75;67.46;76920.69;5093320;28;20028;-85
2021/05/24 06:01:05;;;;;;;4.55;1.83;;;;;;;-142.75;67.38;76920.69;5092120;28;20024;-85
2021/05/24 06:03:31;;;;;;;4.33;1.40;;;;;;;-142.75;66.83;76920.69;5092541;28;20053;-83
2021/05/24 06:05:57;;;;;;;3.77;1.53;;;;;;;-142.75;67.57;76904.94;5093822;28;20040;-86
2021/05/24 06:08:22;;;;;;;3.47;1.30;;;;;;;-142.75;67.44;76908.88;5092197;28;20052;-84
2021/05/24 06:10:48;;;;;;;2.50;1.30;;;;;;;-142.75;67.31;76912.81;5092426;28;20278;-83
2021/05/24 06:13:13;;;;;;;4.80;1.45;;;;;;;-142.75;67.74;76920.69;5093901;28;20032;-85
2021/05/24 06:15:38;;;;;;;2.63;1.27;;;;;;;-142.75;68.16;76910.84;5091250;28;20446;-83
2021/05/24 06:18:04;;;;;;;6.03;1.80;;;;;;;-142.75;67.99;76901.00;5091727;28;20028;-81
2021/05/24 06:20:31;;;;;;;4.03;1.33;;;;;;;-142.75;67.73;76901.00;5091666;28;20154;-81
2021/05/24 06:22:56;;;;;;;5.80;1.70;;;;;;;-142.75;67.56;76891.16;5090621;28;20034;-84
2021/05/24 06:25:21;;;;;;;3.25;1.60;;;;;;;-142.75;67.99;76883.28;5091347;28;20028;-83
2021/05/24 06:27:47;;;;;;;5.13;1.63;;;;;;;-142.75;67.54;76881.31;5093066;28;20088;-82
2021/05/24 06:30:13;;;;;;;3.53;1.40;;;;;;;-142.75;67.72;76875.41;5093767;28;20035;-82
2021/05/24 06:32:38;;;;;;;3.58;1.50;;;;;;;-142.75;67.50;76855.72;5093240;28;20031;-84
2021/05/24 06:35:05;;;;;;;2.97;1.40;;;;;;;-142.75;66.73;76863.59;5093191;28;20031;-83
2021/05/24 06:37:30;;;;;;;4.23;1.60;;;;;;;-142.75;67.10;76849.81;5091734;28;20077;-81
2021/05/24 06:39:55;;;;;;;7.28;1.67;;;;;;;-142.75;67.27;76857.69;5096401;28;20035;-85
2021/05/24 06:42:21;;;;;;;5.53;1.60;;;;;;;-142.75;67.21;76845.88;5096296;28;20031;-81
2021/05/24 06:44:46;;;;;;;2.85;1.48;;;;;;;-142.75;66.89;76834.06;5095003;28;20836;-83
2021/05/24 06:47:12;;;;;;;3.13;1.40;;;;;;;-142.75;67.19;76834.06;5093866;28;20028;-81
2021/05/24 06:49:37;;;;;;;3.35;1.60;;;;;;;-142.75;66.53;76838.00;5091330;28;20024;-80
2021/05/24 06:52:04;;;;;;;6.60;1.70;;;;;;;-142.75;67.18;76830.13;5093770;28;20016;-78
2021/05/24 06:54:29;;;;;;;4.60;1.70;;;;;;;-142.75;66.99;76820.28;5090291;28;20051;-80
2021/05/24 06:56:54;;;;;;;2.30;1.42;;;;;;;-142.75;66.97;76814.38;5093861;28;20065;-79
2021/05/24 06:59:20;;;;;;;4.13;1.75;;;;;;;-142.75;66.71;76814.38;5094903;28;20020;-80
2021/05/24 07:01:45;;;;;;;4.18;1.73;;;;;;;-142.75;66.73;76818.31;5093594;28;20032;-80
2021/05/24 07:04:10;;;;;;;3.13;1.35;;;;;;;-142.75;66.10;76816.34;5093485;28;20032;-78
2021/05/24 07:06:36;;;;;;;3.95;1.52;;;;;;;-142.75;66.11;76812.41;5094235;28;20094;-79
2021/05/24 07:09:02;;;;;;;4.85;1.63;;;;;;;-142.75;65.76;76830.13;5092999;28;20036;-81
2021/05/24 07:11:27;;;;;;;5.88;1.58;;;;;;;-142.75;65.54;76838.00;5093935;28;20020;-84
2021/05/24 07:13:52;;;;;;;6.95;1.65;;;;;;;-142.75;66.67;76839.97;5094331;28;20370;-80
2021/05/24 07:16:18;;;;;;;4.30;1.90;;;;;;;-142.75;66.75;76834.06;5093194;28;20087;-82
2021/05/24 07:18:43;;;;;;;3.10;1.45;;;;;;;-142.75;66.64;76838.00;5093311;28;20016;-79
2021/05/24 07:21:08;;;;;;;3.22;1.65;;;;;;;-142.75;66.89;76845.88;5096413;28;20441;-78
2021/05/24 07:23:34;;;;;;;3.50;1.33;;;;;;;-142.75;66.34;76845.88;5093721;28;20020;-81
2021/05/24 07:25:59;;;;;;;3.25;1.83;;;;;;;-142.75;67.16;76832.09;5092242;28;20016;-79
2021/05/24 07:28:25;;;;;;;7.35;1.75;;;;;;;-142.75;66.27;76834.06;5094794;28;20101;-80
2021/05/24 07:30:50;;;;;;;6.28;1.65;;;;;;;-142.75;66.58;76826.19;5093390;28;20092;-83
2021/05/24 07:33:15;;;;;;;3.60;1.58;;;;;;;-142.75;66.30;76820.28;5090297;28;20027;-82
2021/05/24 07:35:41;;;;;;;4.43;1.77;;;;;;;-142.75;66.67;76808.50;5093814;28;20397;-81
2021/05/24 07:38:08;;;;;;;3.35;1.30;;;;;;;-142.75;66.21;76802.56;5093949;28;20270;-82
2021/05/24 07:40:33;;;;;;;4.13;1.35;;;;;;;-142.75;66.23;76786.84;5093685;28;20016;-82
2021/05/24 07:42:58;;;;;;;4.32;1.42;;;;;;;-142.75;65.96;76792.75;5094088;28;20031;-85
2021/05/24 07:45:24;;;;;;;2.58;1.05;;;;;;;-142.75;66.15;76792.75;5094416;28;20047;-81
2021/05/24 07:47:49;;;;;;;4.53;1.30;;;;;;;-142.75;66.56;76802.56;5095077;28;20401;-83
2021/05/24 07:50:14;;;;;;;4.93;1.33;;;;;;;-142.75;66.19;76804.53;5095641;28;20031;-84
2021/05/24 07:52:40;;;;;;;2.08;1.08;;;;;;;-142.75;65.60;76822.25;5094142;28;20115;-85
2021/05/24 07:55:05;;;;;;;3.83;1.40;;;;;;;-142.75;66.58;76814.38;5093779;28;20038;-85
2021/05/24 07:57:32;;;;;;;4.38;1.63;;;;;;;-142.75;66.94;76802.56;5094043;28;20080;-82
2021/05/24 07:59:57;;;;;;;2.47;0.98;;;;;;;-142.75;66.61;76810.44;5092108;28;20020;-85
2021/05/24 08:02:22;;;;;;;4.40;1.10;;;;;;;-142.75;66.52;76804.53;5095548;28;20024;-85
2021/05/24 08:04:49;;;;;;;4.87;1.27;;;;;;;-142.75;66.60;76808.50;5094918;28;20806;-82
2021/05/24 08:07:14;;;;;;;4.47;1.42;;;;;;;-142.75;66.13;76798.66;5095233;28;20333;-84
2021/05/24 08:09:40;;;;;;;3.92;1.63;;;;;;;-142.75;66.54;76792.75;5094171;28;20020;-83
2021/05/24 08:12:05;;;;;;;3.63;1.50;;;;;;;-142.75;66.75;76775.03;5093083;28;20031;-83
2021/05/24 08:14:30;;;;;;;3.30;1.48;;;;;;;-142.75;66.72;76778.97;5093130;28;20274;-81
2021/05/24 08:16:58;;;;;;;6.32;1.73;;;;;;;-142.75;66.82;76771.09;5094249;28;20048;-84
2021/05/24 08:19:23;;;;;;;3.22;1.60;;;;;;;-142.75;66.82;76761.25;5094842;28;20416;-83
2021/05/24 08:21:50;;;;;;;3.63;1.63;;;;;;;-142.75;66.44;76747.47;5095028;28;20106;-84
2021/05/24 08:24:17;;;;;;;5.97;1.58;;;;;;;-142.75;66.45;76743.53;5096784;28;20055;-84
2021/05/24 08:26:43;;;;;;;;;;;;;;;-142.75;66.15;76747.47;5097283;28;20016;-81
2021/05/24 08:29:08;;;;;;;3.45;1.52;;;;;;;-142.75;66.27;76773.06;5096647;28;19916;-83
2021/05/24 08:31:37;;;;;;;5.18;1.70;;;;;;;-142.75;66.13;76765.19;5096437;28;20112;-83
2021/05/24 08:34:04;;;;;;;3.15;1.50;;;;;;;-142.75;65.98;76775.03;5093503;28;20048;-85
2021/05/24 08:36:29;;;;;;;4.80;1.60;;;;;;;-142.75;65.83;76786.84;5097225;28;20071;-84
2021/05/24 08:38:55;;;;;;;4.20;1.77;;;;;;;-142.75;66.66;76771.09;5096233;28;20421;-83
2021/05/24 08:41:20;;;;;;;6.47;1.80;;;;;;;-142.75;66.53;76778.97;5095807;28;20020;-84
2021/05/24 08:43:46;;;;;;;2.95;1.77;;;;;;;-142.75;67.35;76780.94;5095517;28;20481;-85
2021/05/24 08:46:12;;;;;;;4.82;1.67;;;;;;;-142.75;66.39;76788.81;5095485;28;20052;-86
2021/05/24 08:48:37;;;;;;;3.63;1.40;;;;;;;-142.75;66.17;76763.22;5096171;28;20019;-81
2021/05/24 08:51:06;;;;;;;6.93;1.92;;;;;;;-142.75;66.72;76727.78;5096790;28;20511;-83
2021/05/24 08:53:31;;;;;;;6.47;1.70;;;;;;;-142.75;66.15;76719.91;5093689;28;20027;-82
2021/05/24 08:55:57;;;;;;;4.13;1.83;;;;;;;-142.75;66.30;76700.22;5095252;28;20057;-86
2021/05/24 08:58:23;;;;;;;4.03;1.50;;;;;;;-142.75;66.11;76694.31;5096615;28;20481;-84
2021/05/24 09:00:48;;;;;;;3.00;1.50;;;;;;;-142.75;65.93;76676.59;5094794;28;20089;-85
2021/05/24 09:03:21;;;;;;;2.22;1.38;;;;;;;-142.75;65.34;76672.66;5097188;28;20028;-85
2021/05/24 09:05:49;;;;;;;2.90;1.13;;;;;;;-142.75;64.97;76664.78;5092736;28;20016;-87
2021/05/24 09:08:14;;;;;;;2.03;1.08;;;;;;;-142.75;64.67;76674.63;5095889;28;20451;-82
2021/05/24 09:10:42;;;;;;;3.78;1.40;;;;;;;-142.75;65.41;76676.59;5095568;28;20028;-85
2021/05/24 09:13:14;;;;;;;3.08;1.35;;;;;;;-142.75;65.44;76676.59;5095350;28;20024;-85
2021/05/24 09:15:42;;;;;;;2.60;1.10;;;;;;;-142.75;65.58;76676.59;5091834;28;20020;-82
2021/05/24 09:18:09;;;;;;;5.13;1.33;;;;;;;-142.75;64.47;76710.06;5095818;28;20023;-82
2021/05/24 09:20:40;;;;;;;4.15;1.58;;;;;;;-142.75;65.93;76706.13;5094402;28;20016;-85
2021/05/24 09:23:35;;;;;;;2.70;1.02;;;;;;;-142.75;65.18;76717.94;5092233;28;20058;-82
2021/05/24 09:26:11;;;;;;;3.00;1.02;;;;;;;-142.75;64.71;76729.75;5090441;28;20032;-82
2021/05/24 09:28:46;;;;;;;2.95;1.13;;;;;;;-142.75;65.43;76696.28;5095863;28;20020;-84
2021/05/24 09:31:14;;;;;;;3.80;1.50;;;;;;;-142.75;65.25;76686.44;5093260;28;20127;-83
2021/05/24 09:33:45;;;;;;;5.05;1.40;;;;;;;-142.75;64.58;76700.22;5094678;28;20028;-82
2021/05/24 09:36:11;;;;;;;3.60;1.60;;;;;;;-142.75;65.23;76678.56;5093843;28;20095;-82
2021/05/24 09:38:46;;;;;;;4.50;1.73;;;;;;;-142.75;65.08;76666.75;5094925;28;20043;-85
2021/05/24 09:41:13;;;;;;;2.72;1.30;;;;;;;-142.75;64.35;76651.00;5094189;28;20036;-81
2021/05/24 09:43:44;;;;;;;3.15;1.25;;;;;;;-142.75;63.90;76635.25;5094364;28;20024;-80
2021/05/24 09:46:19;;;;;;;4.15;1.55;;;;;;;-142.75;64.53;76629.34;5096630;28;20031;-84
2021/05/24 09:48:53;;;;;;;5.40;1.58;;;;;;;-142.75;63.98;76627.38;5091825;28;20051;-81
2021/05/24 09:51:21;;;;;;;2.58;1.38;;;;;;;-142.75;64.71;76625.41;5092277;28;20114;-81
2021/05/24 09:54:03;;;;;;;3.17;1.73;;;;;;;-142.75;64.37;76680.53;5094127;28;20026;-83
2021/05/24 09:56:33;;;;;;;2.92;1.35;;;;;;;-142.75;65.39;76649.03;5092510;28;20095;-83
2021/05/24 09:59:00;;;;;;;3.63;1.88;;;;;;;-142.75;64.65;76654.94;5092613;28;20031;-83
2021/05/24 10:01:43;;;;;;;2.83;1.70;;;;;;;-142.75;64.57;76635.25;5093135;28;20032;-82
2021/05/24 10:04:11;;;;;;;4.07;1.67;;;;;;;-142.75;64.14;76660.84;5093360;28;20024;-81
2021/05/24 10:06:38;;;;;;;4.40;1.90;;;;;;;-142.75;64.20;76649.03;5093925;28;20028;-84
2021/05/24 10:09:05;;;;;;;3.03;2.00;;;;;;;-142.75;64.29;76649.03;5092655;28;20028;-85
2021/05/24 10:11:30;;;;;;;2.50;1.60;;;;;;;-142.75;64.32;76631.31;5093861;28;20035;-83
2021/05/24 10:13:56;;;;;;;4.40;2.00;;;;;;;-142.75;63.88;76635.25;5093931;28;20377;-84
2021/05/24 10:16:24;;;;;;;2.67;1.38;;;;;;;-142.75;63.18;76672.66;5093589;28;20036;-84
2021/05/24 10:18:49;;;;;;;4.80;1.95;;;;;;;-142.75;64.04;76660.84;5095016;28;20069;-82
2021/05/24 10:21:15;;;;;;;4.40;1.73;;;;;;;-142.75;63.94;76649.03;5094956;28;20182;-85
2021/05/24 10:23:40;;;;;;;2.85;1.52;;;;;;;-142.75;62.93;76678.56;5093377;28;20055;-83
2021/05/24 10:26:08;;;;;;;2.60;1.30;;;;;;;-142.75;62.83;76672.66;5094433;28;20032;-84
2021/05/24 10:28:34;;;;;;;3.95;1.70;;;;;;;-142.75;63.25;76656.91;5091479;28;20023;-80
2021/05/24 10:31:00;;;;;;;;;;;;;;;-142.75;63.11;76647.06;5093607;28;20020;-81
2021/05/24 10:33:42;;;;;;;5.47;1.70;;;;;;;-142.75;62.69;76631.31;5094563;28;19919;-82
2021/05/24 10:36:15;;;;;;;2.70;1.60;;;;;;;-142.75;62.36;76633.28;5092286;28;20020;-83
2021/05/24 10:38:41;;;;;;;3.08;1.90;;;;;;;-142.75;63.93;76609.66;5092877;28;20020;-83
2021/05/24 10:41:16;;;;;;;3.47;1.60;;;;;;;-142.75;62.10;76588.00;5090548;28;20092;-84
2021/05/24 10:43:56;;;;;;;2.60;1.83;;;;;;;-142.75;63.17;76578.16;5092890;28;20055;-83
2021/05/24 10:46:28;;;;;;;2.22;1.42;;;;;;;-142.75;62.70;76582.09;5090468;28;20032;-80
2021/05/24 10:49:04;;;;;;;3.55;1.58;;;;;;;-142.75;62.27;76562.41;5093230;28;20024;-84
2021/05/24 10:51:45;;;;;;;2.60;1.50;;;;;;;-142.75;61.01;76597.84;5094127;28;20054;-84
2021/05/24 10:54:10;;;;;;;2.10;1.30;;;;;;;-142.75;61.56;76597.84;5093506;28;20460;-80
2021/05/24 10:56:42;;;;;;;3.25;1.95;;;;;;;-142.75;61.24;76552.56;5091942;28;20110;-83
2021/05/24 10:59:48;;;;;;;2.80;1.70;;;;;;;-142.75;62.29;76509.28;5090067;28;20028;-85
2021/05/24 11:02:23;;;;;;;3.95;1.40;;;;;;;-142.75;60.00;76509.28;5092850;28;20027;-83
2021/05/24 11:04:49;;;;;;;2.53;1.55;;;;;;;-142.75;59.81;76530.91;5090098;28;20031;-83
2021/05/24 11:07:32;;;;;;;3.03;1.55;;;;;;;-142.75;60.61;76542.72;5092505;28;20024;-80
2021/05/24 11:10:12;;;;;;;3.28;1.63;;;;;;;-142.75;61.45;76527.00;5091492;28;20035;-79
2021/05/24 11:12:38;;;;;;;5.25;1.55;;;;;;;-142.75;61.44;76483.69;5094224;28;20046;-83
2021/05/24 11:15:09;;;;;;;5.30;1.65;;;;;;;-142.75;58.72;76436.44;5093981;28;20025;-81
2021/05/24 11:18:00;;;;;;;2.33;1.40;;;;;;;-142.75;58.77;76448.25;5090665;28;20031;-83